Time;durP1;ratioP1;P1;durP2;ratioP2;P2;SDS_P1;SDS_P2;PMS_P1;PMS_P2;Temp;Humidity;BMP_temperature;BMP_pressure;BME280_temperature;BME280_humidity;BME280_pressure;Samples;Min_cycle;Max_cycle;Signal;HPM_P1;HPM_P2
2023/05/21 00:00:41;;;;;;;9.93;9.13;;;;;;;14.49;83.11;100709.94;4987490;28;20309;-81
2023/05/21 00:03:12;;;;;;;10.53;9.73;;;;;;;14.46;82.87;100708.25;4986300;28;20241;-80
2023/05/21 00:05:39;;;;;;;9.37;8.77;;;;;;;14.45;83.27;100701.28;4985538;28;20203;-81
2023/05/21 00:08:05;;;;;;;9.60;8.63;;;;;;;14.44;82.89;100698.69;4985503;28;20209;-81
2023/05/21 00:10:33;;;;;;;9.87;9.17;;;;;;;14.40;83.41;100697.06;4985495;28;20211;-81
2023/05/21 00:13:00;;;;;;;9.53;8.90;;;;;;;14.34;83.73;100695.47;4985421;28;20845;-81
2023/05/21 00:15:26;;;;;;;10.10;9.30;;;;;;;14.28;84.06;100682.53;4985928;28;20215;-81
2023/05/21 00:17:52;;;;;;;9.97;9.37;;;;;;;14.17;84.32;100676.75;4985561;28;20324;-81
2023/05/21 00:20:20;;;;;;;9.57;8.87;;;;;;;14.15;84.60;100666.28;4987043;28;20202;-81
2023/05/21 00:22:48;;;;;;;10.20;9.50;;;;;;;14.19;84.60;100656.56;4983055;28;20584;-79
2023/05/21 00:25:14;;;;;;;9.73;9.03;;;;;;;14.19;84.63;100657.44;4983235;28;20576;-79
2023/05/21 00:27:42;;;;;;;10.10;9.40;;;;;;;14.20;84.34;100658.28;4983405;28;20240;-79
2023/05/21 00:30:09;;;;;;;9.83;9.23;;;;;;;14.20;84.55;100653.88;4983811;28;20205;-79
2023/05/21 00:32:35;;;;;;;9.60;9.00;;;;;;;14.19;84.68;100661.81;4984248;28;20233;-79
2023/05/21 00:35:01;;;;;;;9.87;9.17;;;;;;;14.16;84.67;100649.63;4983502;28;20230;-79
2023/05/21 00:37:31;;;;;;;10.37;9.57;;;;;;;14.12;84.75;100652.41;4982000;28;20563;-79
2023/05/21 00:39:57;;;;;;;10.57;9.83;;;;;;;14.04;85.02;100643.00;4983653;28;20209;-79
2023/05/21 00:42:26;;;;;;;9.60;8.90;;;;;;;14.03;85.04;100643.91;4981387;28;20201;-78
2023/05/21 00:44:53;;;;;;;9.70;8.90;;;;;;;14.08;84.70;100647.25;4979620;28;20649;-78
2023/05/21 00:47:21;;;;;;;9.57;8.90;;;;;;;14.01;84.53;100655.34;4982045;28;20311;-79
2023/05/21 00:49:50;;;;;;;10.63;9.83;;;;;;;14.00;84.78;100643.16;4982080;28;20206;-78
2023/05/21 00:52:19;;;;;;;9.17;8.57;;;;;;;13.93;85.50;100637.19;4982374;28;20198;-78
2023/05/21 00:54:46;;;;;;;9.90;9.20;;;;;;;13.88;86.26;100623.38;4982004;28;20226;-78
2023/05/21 00:57:13;;;;;;;10.47;9.53;;;;;;;13.85;86.16;100619.06;4978344;28;20545;-78
2023/05/21 00:59:40;;;;;;;10.53;9.83;;;;;;;13.80;86.59;100613.09;4980546;28;20260;-79
2023/05/21 01:02:08;;;;;;;9.70;9.10;;;;;;;13.79;86.80;100594.78;4980018;28;20212;-78
2023/05/21 01:04:35;;;;;;;10.53;9.73;;;;;;;13.78;87.16;100593.91;4981403;28;20220;-78
2023/05/21 01:07:01;;;;;;;9.40;8.77;;;;;;;13.74;87.58;100583.56;4978765;28;20256;-78
2023/05/21 01:09:28;;;;;;;10.37;9.57;;;;;;;13.75;87.47;100580.03;4979690;28;20770;-78
2023/05/21 01:11:55;;;;;;;9.60;8.90;;;;;;;13.74;87.05;100581.81;4979759;28;20245;-78
2023/05/21 01:14:23;;;;;;;9.57;8.97;;;;;;;13.76;87.19;100587.00;4980958;28;20217;-78
2023/05/21 01:16:51;;;;;;;9.97;9.27;;;;;;;13.73;87.00;100590.56;4981130;28;20683;-79
2023/05/21 01:19:20;;;;;;;10.23;9.53;;;;;;;13.72;87.26;100591.47;4980172;28;20200;-79
2023/05/21 01:21:51;;;;;;;10.67;9.73;;;;;;;13.66;87.54;100581.16;4980807;28;20205;-78
2023/05/21 01:24:19;;;;;;;10.13;9.33;;;;;;;13.62;87.75;100583.03;4981424;28;20289;-78
2023/05/21 01:26:46;;;;;;;10.43;9.53;;;;;;;13.59;87.82;100582.25;4976735;28;20225;-78
2023/05/21 01:29:13;;;;;;;10.00;9.07;;;;;;;13.61;87.68;100580.44;4979926;28;20265;-80
2023/05/21 01:31:50;;;;;;;10.37;9.47;;;;;;;13.53;88.43;100575.41;4982153;28;20672;-80
2023/05/21 01:34:21;;;;;;;9.43;8.73;;;;;;;13.44;88.92;100570.44;4979451;28;20247;-80
2023/05/21 01:36:53;;;;;;;9.73;9.03;;;;;;;13.46;88.58;100566.03;4981957;28;20214;-80
2023/05/21 01:39:28;;;;;;;9.90;9.20;;;;;;;13.46;88.66;100556.38;4982565;28;20202;-80
2023/05/21 01:41:56;;;;;;;10.87;9.17;;;;;;;13.44;88.52;100550.31;4979180;28;20226;-78
2023/05/21 01:44:25;;;;;;;9.80;9.10;;;;;;;13.42;88.73;100553.88;4980610;28;20441;-78
2023/05/21 01:46:53;;;;;;;9.57;8.67;;;;;;;13.43;88.30;100566.09;4979466;28;20224;-77
2023/05/21 01:49:20;;;;;;;9.23;8.53;;;;;;;13.34;88.73;100564.59;4979030;28;20213;-77
2023/05/21 01:51:47;;;;;;;9.80;9.00;;;;;;;13.33;88.63;100567.25;4980391;28;20259;-78
2023/05/21 01:54:14;;;;;;;9.53;8.87;;;;;;;13.33;88.59;100569.88;4980154;28;20228;-78
2023/05/21 01:56:42;;;;;;;10.10;9.40;;;;;;;13.30;88.44;100581.31;4978470;28;20198;-77
2023/05/21 01:59:08;;;;;;;10.67;9.33;;;;;;;13.31;88.63;100576.00;4979866;28;20267;-77
2023/05/21 02:01:35;;;;;;;9.57;8.87;;;;;;;13.23;89.28;100564.84;4979278;28;20252;-78
2023/05/21 02:04:01;;;;;;;9.97;9.27;;;;;;;13.19;89.33;100571.09;4978639;28;20230;-78
2023/05/21 02:06:28;;;;;;;9.97;9.27;;;;;;;13.14;89.40;100580.84;4979361;28;20208;-77
2023/05/21 02:08:55;;;;;;;10.30;9.60;;;;;;;13.11;89.49;100570.44;4979398;28;20204;-78
2023/05/21 02:11:22;;;;;;;9.20;8.50;;;;;;;13.12;89.61;100574.78;4979313;28;20211;-77
2023/05/21 02:13:49;;;;;;;10.07;9.30;;;;;;;13.14;89.31;100575.63;4979565;28;20723;-78
2023/05/21 02:16:16;;;;;;;9.13;8.50;;;;;;;13.14;89.72;100573.00;4979998;28;20215;-78
2023/05/21 02:18:43;;;;;;;10.03;9.30;;;;;;;13.14;89.84;100567.75;4979094;28;20271;-78
2023/05/21 02:21:10;;;;;;;9.47;8.77;;;;;;;13.15;89.27;100576.47;4980192;28;20204;-78
2023/05/21 02:23:37;;;;;;;10.30;9.40;;;;;;;13.05;89.27;100576.72;4976615;28;20235;-78
2023/05/21 02:26:03;;;;;;;10.63;9.67;;;;;;;13.01;89.72;100576.84;4973755;28;20263;-78
2023/05/21 02:28:31;;;;;;;10.07;9.30;;;;;;;13.00;89.98;100567.25;4973663;28;20263;-77
2023/05/21 02:30:59;;;;;;;9.77;8.97;;;;;;;12.95;90.41;100551.66;4974349;28;20263;-77
2023/05/21 02:33:25;;;;;;;8.50;7.90;;;;;;;12.90;90.45;100551.78;4973970;28;20675;-77
2023/05/21 02:35:51;;;;;;;9.63;8.93;;;;;;;12.90;90.48;100553.53;4973793;28;20258;-77
2023/05/21 02:38:21;;;;;;;9.90;9.10;;;;;;;12.88;90.59;100550.97;4974100;28;20228;-77
2023/05/21 02:40:48;;;;;;;9.43;8.73;;;;;;;12.86;90.37;100558.00;4973837;28;20272;-77
2023/05/21 02:43:14;;;;;;;9.97;9.20;;;;;;;12.90;90.38;100561.38;4974311;28;20257;-78
2023/05/21 02:45:41;;;;;;;10.20;9.50;;;;;;;12.93;89.99;100558.69;4975138;28;20242;-77
2023/05/21 02:48:08;;;;;;;9.00;8.37;;;;;;;12.90;89.95;100562.28;4975452;28;20267;-78
2023/05/21 02:50:34;;;;;;;8.37;7.83;;;;;;;12.90;89.64;100564.00;4975479;28;20216;-77
2023/05/21 02:53:01;;;;;;;9.83;9.13;;;;;;;12.88;89.98;100569.31;4973788;28;20232;-77
2023/05/21 02:55:27;;;;;;;9.73;8.90;;;;;;;12.75;90.74;100562.66;4973702;28;20259;-77
2023/05/21 02:57:53;;;;;;;9.27;8.67;;;;;;;12.74;90.53;100560.09;4974279;28;20640;-77
2023/05/21 03:00:20;;;;;;;9.33;8.63;;;;;;;12.69;90.84;100560.22;4973598;28;20247;-77
2023/05/21 03:02:46;;;;;;;8.60;8.00;;;;;;;12.68;90.49;100561.94;4974070;28;20243;-77
2023/05/21 03:05:14;;;;;;;9.23;8.63;;;;;;;12.69;89.95;100562.81;4974125;28;20659;-77
2023/05/21 03:07:41;;;;;;;8.73;8.13;;;;;;;12.65;90.16;100564.66;4974534;28;20232;-77
2023/05/21 03:10:08;;;;;;;9.37;8.67;;;;;;;12.58;90.85;100560.47;4973542;28;20251;-77
2023/05/21 03:12:34;;;;;;;9.50;8.80;;;;;;;12.55;91.15;100547.47;4974071;28;20235;-79
2023/05/21 03:15:00;;;;;;;10.07;9.33;;;;;;;12.54;91.35;100537.03;4973727;28;20775;-79
2023/05/21 03:17:27;;;;;;;9.40;8.73;;;;;;;12.54;91.25;100539.63;4974439;28;20223;-79
2023/05/21 03:19:53;;;;;;;10.27;9.57;;;;;;;12.43;90.92;100538.16;4974432;28;20590;-79
2023/05/21 03:22:21;;;;;;;9.80;9.00;;;;;;;12.46;91.50;100535.44;4973985;28;20216;-79
2023/05/21 03:24:47;;;;;;;9.80;9.10;;;;;;;12.43;91.03;100539.94;4973656;28;20275;-79
2023/05/21 03:27:14;;;;;;;9.17;8.47;;;;;;;12.39;91.34;100541.75;4974045;28;20246;-79
2023/05/21 03:29:42;;;;;;;9.57;8.77;;;;;;;12.33;91.97;100541.91;4974013;28;20235;-79
2023/05/21 03:32:08;;;;;;;9.90;9.13;;;;;;;12.30;91.69;100521.88;4974375;28;20212;-79
2023/05/21 03:34:34;;;;;;;8.70;8.03;;;;;;;12.35;91.58;100527.03;4973467;28;20248;-79
2023/05/21 03:37:01;;;;;;;9.33;8.57;;;;;;;12.40;91.36;100532.13;4973866;28;20235;-79
2023/05/21 03:39:28;;;;;;;9.47;8.83;;;;;;;12.44;91.41;100534.63;4974315;28;20204;-79
2023/05/21 03:41:55;;;;;;;9.80;9.10;;;;;;;12.45;92.09;100525.03;4973961;28;20208;-77
2023/05/21 03:44:21;;;;;;;10.07;9.27;;;;;;;12.48;91.85;100531.03;4974395;28;20235;-79
2023/05/21 03:46:47;;;;;;;9.30;8.60;;;;;;;12.49;92.37;100518.81;4973769;28;20204;-79
2023/05/21 03:49:14;;;;;;;9.77;9.07;;;;;;;12.51;92.32;100514.41;4974159;28;20638;-79
2023/05/21 03:51:40;;;;;;;10.13;9.23;;;;;;;12.53;92.63;100528.31;4974433;28;20216;-79
2023/05/21 03:54:06;;;;;;;8.93;8.33;;;;;;;12.55;92.70;100523.91;4974031;28;20236;-79
2023/05/21 03:56:34;;;;;;;8.87;8.20;;;;;;;12.60;92.70;100519.38;4974388;28;20208;-79
2023/05/21 03:59:01;;;;;;;12.83;8.30;;;;;;;12.61;92.04;100520.28;4974090;28;20201;-79
2023/05/21 04:01:28;;;;;;;9.00;8.30;;;;;;;12.64;92.37;100528.88;4974080;28;20656;-77
2023/05/21 04:03:54;;;;;;;9.00;8.40;;;;;;;12.66;92.11;100536.69;4974032;28;20228;-77
2023/05/21 04:06:20;;;;;;;9.30;8.60;;;;;;;12.65;91.80;100540.25;4973845;28;20248;-79
2023/05/21 04:08:46;;;;;;;10.23;9.23;;;;;;;12.68;92.24;100541.00;4974004;28;20944;-79
2023/05/21 04:11:13;;;;;;;9.50;8.67;;;;;;;12.69;92.03;100542.72;4975751;28;20293;-79
2023/05/21 04:13:40;;;;;;;9.17;8.47;;;;;;;12.70;92.60;100541.84;4977938;28;20746;-79
2023/05/21 04:16:07;;;;;;;9.17;8.40;;;;;;;12.71;92.22;100545.31;4979732;28;20221;-79
2023/05/21 04:18:34;;;;;;;9.87;9.17;;;;;;;12.70;92.77;100538.34;4977816;28;20201;-79
2023/05/21 04:21:01;;;;;;;9.20;8.50;;;;;;;12.73;92.64;100537.44;4977422;28;20262;-79
2023/05/21 04:23:27;;;;;;;9.57;8.83;;;;;;;12.74;93.02;100532.13;4977554;28;20320;-79
2023/05/21 04:25:54;;;;;;;8.90;8.30;;;;;;;12.79;92.67;100532.88;4978265;28;20243;-79
2023/05/21 04:28:20;;;;;;;8.80;8.10;;;;;;;12.80;92.96;100531.94;4977366;28;20257;-79
2023/05/21 04:30:48;;;;;;;9.00;8.30;;;;;;;12.83;92.86;100537.13;4977589;28;20209;-79
2023/05/21 04:33:16;;;;;;;8.93;8.13;;;;;;;12.88;93.07;100539.59;4977161;28;20715;-79
2023/05/21 04:35:43;;;;;;;8.87;8.23;;;;;;;12.92;92.98;100541.25;4977318;28;20216;-79
2023/05/21 04:38:11;;;;;;;9.07;8.47;;;;;;;12.96;93.52;100537.63;4978812;28;20211;-80
2023/05/21 04:40:37;;;;;;;8.87;8.20;;;;;;;13.00;93.66;100525.31;4977834;28;20579;-80
2023/05/21 04:43:04;;;;;;;8.57;7.97;;;;;;;13.03;93.38;100531.34;4978257;28;20229;-80
2023/05/21 04:45:30;;;;;;;9.97;8.97;;;;;;;13.08;93.44;100539.06;4976722;28;20212;-79
2023/05/21 04:47:59;;;;;;;8.70;8.10;;;;;;;13.11;93.03;100541.63;4977098;28;20737;-79
2023/05/21 04:50:25;;;;;;;8.30;7.70;;;;;;;13.16;92.96;100542.34;4977087;28;20216;-79
2023/05/21 04:52:53;;;;;;;8.90;8.10;;;;;;;13.21;92.96;100544.84;4977179;28;20206;-79
2023/05/21 04:55:20;;;;;;;8.70;8.10;;;;;;;13.25;92.80;100551.72;4977476;28;20214;-79
2023/05/21 04:57:46;;;;;;;8.73;7.93;;;;;;;13.29;92.83;100551.59;4976549;28;20681;-79
2023/05/21 05:00:13;;;;;;;8.07;7.57;;;;;;;13.34;92.50;100546.25;4977391;28;20237;-79
2023/05/21 05:02:40;;;;;;;8.83;8.13;;;;;;;13.37;92.31;100564.50;4976786;28;20696;-79
2023/05/21 05:05:08;;;;;;;9.63;8.80;;;;;;;13.39;91.55;100570.56;4975306;28;20236;-79
2023/05/21 05:07:34;;;;;;;8.30;7.70;;;;;;;13.46;92.47;100573.88;4976687;28;20229;-79
2023/05/21 05:10:01;;;;;;;8.20;7.60;;;;;;;13.48;92.01;100567.69;4977737;28;20209;-79
2023/05/21 05:12:27;;;;;;;9.57;8.87;;;;;;;13.52;92.14;100568.47;4976532;28;20261;-79
2023/05/21 05:14:53;;;;;;;8.90;8.30;;;;;;;13.54;91.87;100568.38;4977373;28;20738;-79
2023/05/21 05:17:20;;;;;;;9.40;8.70;;;;;;;13.57;91.60;100571.78;4977594;28;20218;-79
2023/05/21 05:19:46;;;;;;;9.10;8.40;;;;;;;13.60;91.87;100576.97;4977384;28;20242;-77
2023/05/21 05:22:14;;;;;;;8.80;8.10;;;;;;;13.65;91.81;100585.53;4975653;28;20206;-77
2023/05/21 05:24:40;;;;;;;9.50;8.70;;;;;;;13.68;91.73;100588.09;5010052;23;20251;-82
2023/05/21 05:27:07;;;;;;;9.67;8.87;;;;;;;13.70;91.54;100583.66;5000303;28;20246;-81
2023/05/21 05:29:33;;;;;;;9.10;8.40;;;;;;;13.75;91.25;100588.75;5000322;28;20224;-81
2023/05/21 05:31:59;;;;;;;8.60;7.87;;;;;;;13.80;91.49;100589.47;5000757;28;20205;-80
2023/05/21 05:34:26;;;;;;;9.10;8.40;;;;;;;13.85;91.40;100591.97;5002719;28;20228;-80
2023/05/21 05:36:52;;;;;;;8.93;8.23;;;;;;;13.88;91.10;100595.34;5002118;28;20208;-81
2023/05/21 05:39:20;;;;;;;8.97;8.37;;;;;;;13.93;90.36;100596.97;5002415;28;20212;-82
2023/05/21 05:41:46;;;;;;;9.37;8.77;;;;;;;13.95;90.45;100595.16;4999203;28;20204;-79
2023/05/21 05:44:12;;;;;;;9.50;8.73;;;;;;;13.95;91.25;100593.41;4998845;28;20227;-79
2023/05/21 05:46:39;;;;;;;9.40;8.80;;;;;;;13.96;91.37;100582.00;4998715;28;20250;-80
2023/05/21 05:49:05;;;;;;;9.83;9.13;;;;;;;14.01;91.03;100585.38;4997729;28;20227;-80
2023/05/21 05:51:32;;;;;;;9.93;9.13;;;;;;;14.04;91.11;100589.66;4997640;28;20207;-80
2023/05/21 05:53:58;;;;;;;9.53;8.83;;;;;;;14.07;91.34;100586.91;4997291;28;20230;-80
2023/05/21 05:56:26;;;;;;;10.53;9.53;;;;;;;14.09;90.99;100593.84;4998584;28;20233;-80
2023/05/21 05:58:52;;;;;;;9.67;8.90;;;;;;;14.13;91.36;100594.59;4997777;28;20209;-81
2023/05/21 06:01:21;;;;;;;9.77;8.90;;;;;;;14.16;91.35;100591.88;4998936;28;20642;-79
2023/05/21 06:03:47;;;;;;;9.80;8.83;;;;;;;14.19;91.21;100599.69;4997095;28;20660;-80
2023/05/21 06:06:14;;;;;;;10.80;10.00;;;;;;;14.24;91.11;100599.53;4996710;28;20211;-80
2023/05/21 06:08:40;;;;;;;11.47;10.60;;;;;;;14.29;91.14;100601.09;4997944;28;20228;-81
2023/05/21 06:11:06;;;;;;;10.50;9.73;;;;;;;14.36;91.27;100599.13;4997565;28;20234;-79
2023/05/21 06:13:34;;;;;;;11.80;10.80;;;;;;;14.42;91.06;100601.56;4997682;28;20260;-80
2023/05/21 06:16:00;;;;;;;10.40;9.70;;;;;;;14.48;90.72;100603.97;4997585;28;20259;-80
2023/05/21 06:18:27;;;;;;;10.40;9.47;;;;;;;14.55;90.20;100619.53;4997645;28;20210;-80
2023/05/21 06:20:53;;;;;;;10.57;9.87;;;;;;;14.59;90.67;100621.19;4997020;28;20205;-80
2023/05/21 06:23:19;;;;;;;11.30;10.50;;;;;;;14.63;90.38;100623.69;4996508;28;20206;-81
2023/05/21 06:25:46;;;;;;;11.77;10.73;;;;;;;14.71;89.59;100644.47;4995417;28;20210;-80
2023/05/21 06:28:12;;;;;;;12.63;11.57;;;;;;;14.77;89.50;100646.03;4996497;28;20287;-80
2023/05/21 06:30:40;;;;;;;11.87;10.97;;;;;;;14.86;89.26;100646.56;4997033;28;20239;-80
2023/05/21 06:33:06;;;;;;;11.60;10.57;;;;;;;14.92;88.80;100656.00;4995845;28;20596;-80
2023/05/21 06:35:35;;;;;;;11.80;10.90;;;;;;;14.99;88.39;100656.69;4994879;28;20202;-80
2023/05/21 06:38:02;;;;;;;11.77;10.67;;;;;;;15.00;88.47;100666.28;4995812;28;20210;-79
2023/05/21 06:40:28;;;;;;;13.00;11.83;;;;;;;15.03;88.78;100672.28;4996073;28;20211;-81
2023/05/21 06:42:55;;;;;;;13.77;12.77;;;;;;;15.06;88.25;100671.31;4995935;28;20252;-80
2023/05/21 06:45:22;;;;;;;12.40;11.43;;;;;;;15.11;88.08;100674.66;4995562;28;20327;-78
2023/05/21 06:47:49;;;;;;;13.77;12.57;;;;;;;15.18;87.96;100685.81;4996187;28;20214;-80
2023/05/21 06:50:16;;;;;;;12.73;11.80;;;;;;;15.21;87.69;100689.22;4995842;28;20210;-79
2023/05/21 06:52:42;;;;;;;13.27;12.27;;;;;;;15.23;87.13;100697.91;4996463;28;20259;-80
2023/05/21 06:55:09;;;;;;;14.13;12.93;;;;;;;15.24;87.12;100701.38;4996046;28;20255;-79
2023/05/21 06:57:37;;;;;;;14.17;13.10;;;;;;;15.25;87.30;100701.34;4996411;28;20286;-79
2023/05/21 07:00:04;;;;;;;13.93;12.77;;;;;;;15.29;87.39;100694.22;4996726;28;20210;-78
2023/05/21 07:02:30;;;;;;;13.27;12.37;;;;;;;15.33;87.12;100694.97;4997199;28;20297;-79
2023/05/21 07:04:58;;;;;;;14.00;13.00;;;;;;;15.37;87.28;100697.44;4996104;28;20230;-79
2023/05/21 07:07:24;;;;;;;14.63;13.30;;;;;;;15.44;87.37;100695.44;4997572;28;20247;-79
2023/05/21 07:09:50;;;;;;;14.53;13.33;;;;;;;15.48;87.82;100686.56;4995058;28;20606;-78
2023/05/21 07:12:17;;;;;;;14.83;13.53;;;;;;;15.56;87.17;100697.66;4995545;28;20211;-80
2023/05/21 07:14:43;;;;;;;15.17;13.97;;;;;;;15.62;87.01;100702.69;4995019;28;20261;-79
2023/05/21 07:17:09;;;;;;;15.90;14.67;;;;;;;15.67;87.11;100700.75;4994723;28;20636;-80
2023/05/21 07:19:36;;;;;;;15.90;14.77;;;;;;;15.76;86.81;100704.03;4995024;28;20233;-79
2023/05/21 07:22:05;;;;;;;15.53;14.13;;;;;;;15.86;86.50;100708.03;4995000;28;20678;-80
2023/05/21 07:24:31;;;;;;;15.90;14.70;;;;;;;15.93;85.94;100712.13;4994396;28;20272;-81
2023/05/21 07:26:58;;;;;;;16.47;15.27;;;;;;;15.99;86.11;100713.69;4994604;28;20212;-81
2023/05/21 07:29:24;;;;;;;16.10;14.80;;;;;;;16.05;85.99;100710.81;4995074;28;20272;-80
2023/05/21 07:31:50;;;;;;;15.87;14.67;;;;;;;16.12;85.42;100722.00;4994880;28;20206;-80
2023/05/21 07:34:17;;;;;;;16.43;15.13;;;;;;;16.18;84.96;100733.16;4995752;28;20233;-78
2023/05/21 07:36:43;;;;;;;16.60;15.30;;;;;;;16.23;84.73;100733.84;4994705;28;20246;-78
2023/05/21 07:39:11;;;;;;;16.50;15.23;;;;;;;16.29;84.90;100743.28;4995054;28;20717;-79
2023/05/21 07:41:37;;;;;;;18.17;16.87;;;;;;;16.35;85.00;100742.19;4994852;28;20292;-80
2023/05/21 07:44:04;;;;;;;16.93;15.53;;;;;;;16.41;85.35;100726.16;4994639;28;20732;-82
2023/05/21 07:46:30;;;;;;;18.03;16.73;;;;;;;16.48;85.23;100720.59;4996237;28;20301;-80
2023/05/21 07:48:57;;;;;;;19.67;18.07;;;;;;;16.55;84.40;100749.31;4998934;28;20262;-81
2023/05/21 07:51:23;;;;;;;18.33;16.93;;;;;;;16.58;84.30;100746.59;4998650;28;20681;-82
2023/05/21 07:53:49;;;;;;;19.23;17.63;;;;;;;16.61;85.05;100720.09;4999049;28;20782;-81
2023/05/21 07:56:17;;;;;;;20.30;18.60;;;;;;;16.66;84.54;100734.81;4999554;28;20313;-81
2023/05/21 07:58:44;;;;;;;20.90;19.30;;;;;;;16.72;84.39;100741.63;4999678;28;20241;-81
2023/05/21 08:01:11;;;;;;;20.00;18.50;;;;;;;16.79;84.32;100740.47;4999943;28;20594;-80
2023/05/21 08:03:37;;;;;;;19.33;17.93;;;;;;;16.87;84.00;100748.97;4999670;28;20647;-80
2023/05/21 08:06:04;;;;;;;19.67;17.93;;;;;;;16.94;83.61;100748.72;4999092;28;20234;-81
2023/05/21 08:08:30;;;;;;;20.33;18.93;;;;;;;16.91;84.53;100744.44;5000086;28;20231;-81
2023/05/21 08:10:57;;;;;;;20.90;19.47;;;;;;;16.98;84.26;100737.13;5000990;28;20493;-82
2023/05/21 08:13:24;;;;;;;19.30;17.80;;;;;;;17.03;83.86;100743.91;5000378;28;20267;-82
2023/05/21 08:15:52;;;;;;;20.40;18.80;;;;;;;17.10;84.52;100728.69;5000176;28;20215;-82
2023/05/21 08:18:18;;;;;;;23.10;21.03;;;;;;;17.14;83.59;100747.91;5000394;28;20215;-82
2023/05/21 08:20:45;;;;;;;21.23;19.63;;;;;;;17.20;83.62;100747.63;5000093;28;20234;-82
2023/05/21 08:23:11;;;;;;;21.47;19.80;;;;;;;17.27;83.68;100739.41;5000407;28;20206;-83
2023/05/21 08:25:37;;;;;;;19.80;18.20;;;;;;;17.35;83.59;100746.16;5000886;28;20211;-82
2023/05/21 08:28:04;;;;;;;20.40;18.90;;;;;;;17.45;82.75;100755.38;5001296;28;20685;-82
2023/05/21 08:30:31;;;;;;;20.97;19.37;;;;;;;17.55;82.90;100769.91;5001361;28;20774;-82
2023/05/21 08:32:58;;;;;;;21.70;19.70;;;;;;;17.61;82.91;100769.63;5001463;28;20215;-81
2023/05/21 08:35:24;;;;;;;21.07;19.27;;;;;;;17.70;83.73;100765.75;5000097;28;20234;-81
2023/05/21 08:37:51;;;;;;;21.40;19.70;;;;;;;17.86;83.23;100760.69;5000523;28;20214;-83
2023/05/21 08:40:17;;;;;;;20.93;19.43;;;;;;;17.97;82.11;100770.78;5001937;28;20261;-83
2023/05/21 08:42:46;;;;;;;21.17;19.37;;;;;;;18.09;81.63;100791.34;5001492;28;20273;-82
2023/05/21 08:45:14;;;;;;;21.60;19.80;;;;;;;18.15;80.74;100816.66;5001467;28;20242;-83
2023/05/21 08:47:43;;;;;;;22.93;20.97;;;;;;;18.18;80.44;100820.03;5001315;28;20755;-83
2023/05/21 08:50:12;;;;;;;22.23;20.50;;;;;;;18.23;80.85;100828.59;5001576;28;20578;-82
2023/05/21 08:52:38;;;;;;;21.27;19.77;;;;;;;18.35;80.59;100819.25;5001842;28;20576;-83
2023/05/21 08:55:05;;;;;;;22.67;20.93;;;;;;;18.40;80.62;100827.84;5000947;28;20226;-82
2023/05/21 08:57:32;;;;;;;23.20;21.30;;;;;;;18.50;80.41;100825.63;5000509;28;20203;-82
2023/05/21 08:59:58;;;;;;;22.00;20.33;;;;;;;18.55;80.02;100831.59;5001159;28;20261;-82
2023/05/21 09:02:25;;;;;;;23.47;21.57;;;;;;;18.63;79.90;100833.84;5000558;28;20206;-82
2023/05/21 09:04:56;;;;;;;23.50;21.60;;;;;;;18.64;80.16;100838.22;5000194;28;20262;-81
2023/05/21 09:07:26;;;;;;;23.73;22.03;;;;;;;18.65;81.90;100787.91;4999468;28;20222;-80
2023/05/21 09:09:56;;;;;;;22.77;20.97;;;;;;;18.74;80.15;100807.78;4999943;28;20226;-81
2023/05/21 09:12:23;;;;;;;23.97;21.90;;;;;;;18.81;79.61;100825.13;4999261;28;20211;-82
2023/05/21 09:14:49;;;;;;;23.53;21.77;;;;;;;18.90;80.17;100820.31;4999642;28;20261;-81
2023/05/21 09:17:16;;;;;;;23.57;21.57;;;;;;;18.98;79.76;100820.81;4999118;28;20674;-82
2023/05/21 09:20:12;;;;;;;24.00;21.90;;;;;;;19.01;79.42;100834.75;4999877;28;20753;-81
2023/05/21 09:22:41;;;;;;;23.13;21.37;;;;;;;19.10;79.71;100814.91;5000289;28;20756;-83
2023/05/21 09:25:08;;;;;;;23.70;21.90;;;;;;;19.21;78.72;100832.94;4999512;28;20240;-82
2023/05/21 09:27:35;;;;;;;25.33;23.27;;;;;;;19.24;79.22;100844.19;4999805;28;20326;-81
2023/05/21 09:30:02;;;;;;;23.63;21.53;;;;;;;19.36;78.54;100847.19;4999411;28;20779;-81
2023/05/21 09:32:28;;;;;;;23.77;21.97;;;;;;;19.48;78.25;100859.81;4999846;28;20287;-80
2023/05/21 09:34:54;;;;;;;24.37;22.17;;;;;;;19.60;77.39;100871.59;4998894;28;20269;-82
2023/05/21 09:37:22;;;;;;;25.03;22.83;;;;;;;19.70;77.69;100885.25;4999297;28;20214;-81
2023/05/21 09:39:48;;;;;;;23.83;21.97;;;;;;;19.77;77.44;100870.81;4998152;28;20206;-81
2023/05/21 09:42:15;;;;;;;24.23;22.23;;;;;;;19.89;77.03;100886.06;4999555;28;20214;-80
2023/05/21 09:44:43;;;;;;;22.80;20.87;;;;;;;19.99;76.05;100908.50;4998942;28;20780;-81
2023/05/21 09:47:09;;;;;;;23.27;21.37;;;;;;;20.08;76.16;100907.19;4998309;28;20245;-83
2023/05/21 09:49:37;;;;;;;22.63;21.03;;;;;;;20.18;76.36;100918.19;4999861;28;20255;-82
2023/05/21 09:52:03;;;;;;;23.90;22.10;;;;;;;20.27;75.82;100915.03;4999369;28;20230;-83
2023/05/21 09:54:33;;;;;;;24.10;22.00;;;;;;;20.35;74.89;100928.75;5000250;28;20273;-83
2023/05/21 09:57:01;;;;;;;21.80;20.10;;;;;;;20.43;74.13;100944.28;4998948;28;20305;-83
2023/05/21 09:59:35;;;;;;;23.10;21.37;;;;;;;20.54;74.81;100946.38;4999452;28;20204;-83
2023/05/21 10:02:02;;;;;;;22.87;21.13;;;;;;;20.56;75.21;100932.09;4999326;28;20213;-83
2023/05/21 10:04:30;;;;;;;24.33;22.17;;;;;;;20.66;75.03;100924.53;4998968;28;20235;-81
2023/05/21 10:06:59;;;;;;;23.67;21.97;;;;;;;20.72;75.13;100908.28;4998753;28;20294;-82
2023/05/21 10:09:28;;;;;;;22.70;21.00;;;;;;;20.83;74.32;100932.44;4999528;28;20239;-83
2023/05/21 10:11:57;;;;;;;23.40;21.60;;;;;;;20.93;72.62;100946.09;5000050;28;20211;-82
2023/05/21 10:14:27;;;;;;;24.80;22.27;;;;;;;20.99;73.24;100953.72;4999226;28;20227;-82
2023/05/21 10:16:54;;;;;;;22.80;21.07;;;;;;;21.07;72.49;100976.31;4999629;28;20207;-83
2023/05/21 10:19:22;;;;;;;23.37;21.47;;;;;;;21.17;72.34;100980.19;4999540;28;20234;-83
2023/05/21 10:21:49;;;;;;;22.87;21.10;;;;;;;21.26;73.68;100963.75;4999055;28;20250;-83
2023/05/21 10:24:17;;;;;;;22.00;20.30;;;;;;;21.35;72.99;100962.41;5000093;28;20242;-83
2023/05/21 10:26:44;;;;;;;21.80;20.20;;;;;;;21.41;70.97;100980.66;5000628;28;20226;-82
2023/05/21 10:29:14;;;;;;;22.43;20.57;;;;;;;21.52;70.54;101004.81;5001307;28;20223;-82
2023/05/21 10:31:42;;;;;;;22.23;20.53;;;;;;;21.56;70.67;101011.66;4998667;28;20207;-82
2023/05/21 10:34:11;;;;;;;23.50;21.90;;;;;;;21.61;71.68;101003.47;4996477;28;20627;-81
2023/05/21 10:36:38;;;;;;;21.50;20.00;;;;;;;21.70;70.78;101002.06;4988410;28;20579;-82
2023/05/21 10:39:08;;;;;;;23.23;21.47;;;;;;;21.72;69.97;101022.28;4996586;28;20242;-82
2023/05/21 10:41:43;;;;;;;23.10;21.30;;;;;;;21.72;69.79;101032.94;4996254;28;20207;-82
2023/05/21 10:44:21;;;;;;;21.77;20.27;;;;;;;21.77;70.20;101024.72;4996526;28;20231;-80
2023/05/21 10:47:18;;;;;;;20.47;19.07;;;;;;;21.85;69.70;101027.78;4996082;28;20207;-81
2023/05/21 10:49:54;;;;;;;20.47;18.97;;;;;;;21.95;70.32;101005.06;4995920;28;20247;-81
2023/05/21 10:52:39;;;;;;;22.27;20.60;;;;;;;22.08;69.30;101026.47;4996136;28;20214;-80
2023/05/21 10:55:22;;;;;;;20.17;18.77;;;;;;;22.18;71.16;100971.81;4995841;28;20257;-81
2023/05/21 10:58:13;;;;;;;20.43;18.93;;;;;;;22.37;69.67;100981.38;4995938;28;20187;-81
2023/05/21 11:00:42;;;;;;;19.37;17.90;;;;;;;22.52;67.61;100993.78;4995936;28;20266;-82
2023/05/21 11:03:11;;;;;;;20.87;19.47;;;;;;;22.63;67.11;101054.31;4995720;28;20245;-80
2023/05/21 11:05:40;;;;;;;21.07;19.47;;;;;;;22.73;68.03;101030.66;4994103;28;20242;-80
2023/05/21 11:08:20;;;;;;;19.80;18.20;;;;;;;22.80;66.39;101048.84;4996674;28;20230;-80
2023/05/21 11:10:52;;;;;;;19.77;18.37;;;;;;;22.89;65.63;101086.50;4996445;28;20698;-81
2023/05/21 11:13:20;;;;;;;20.30;18.83;;;;;;;22.95;65.18;101102.09;4996685;28;20270;-81
2023/05/21 11:16:07;;;;;;;18.63;17.33;;;;;;;23.06;64.25;101128.97;4997393;28;20214;-80
2023/05/21 11:18:59;;;;;;;20.20;18.60;;;;;;;23.16;63.58;101145.25;4994994;28;20246;-80